Time;durP1;ratioP1;P1;durP2;ratioP2;P2;SDS_P1;SDS_P2;PMS_P1;PMS_P2;Temp;Humidity;BMP_temperature;BMP_pressure;BME280_temperature;BME280_humidity;BME280_pressure;Samples;Min_cycle;Max_cycle;Signal;HPM_P1;HPM_P2
2023/08/29 00:00:17;;;;;;;3.38;2.92;;;;;;;-144.15;100.00;63241.31;1026731;28;20034;-74
2023/08/29 00:00:48;;;;;;;3.95;2.80;;;;;;;-144.15;100.00;63241.31;1026860;28;20031;-74
2023/08/29 00:01:18;;;;;;;4.28;3.08;;;;;;;-144.15;100.00;63241.31;1022520;29;20618;-74
2023/08/29 00:01:49;;;;;;;6.57;2.78;;;;;;;-144.15;100.00;63241.31;1023002;29;20035;-74
2023/08/29 00:02:19;;;;;;;4.22;3.22;;;;;;;-144.15;100.00;63241.31;1025740;28;20027;-75
2023/08/29 00:02:50;;;;;;;3.60;2.85;;;;;;;-144.15;100.00;63241.31;1030927;28;20585;-72
2023/08/29 00:03:21;;;;;;;3.80;3.13;;;;;;;-144.15;100.00;63241.31;1033570;28;20027;-74
2023/08/29 00:03:52;;;;;;;4.05;3.13;;;;;;;-144.15;100.00;63241.31;1034658;28;20025;-74
2023/08/29 00:04:23;;;;;;;3.55;2.88;;;;;;;-144.15;100.00;63241.31;1030840;28;20560;-74
2023/08/29 00:04:53;;;;;;;5.07;3.10;;;;;;;-144.15;100.00;63241.31;1026870;28;20281;-73
2023/08/29 00:05:27;;;;;;;3.72;3.10;;;;;;;-144.15;100.00;63241.31;1026616;28;20495;-74
2023/08/29 00:06:03;;;;;;;5.32;3.17;;;;;;;-144.15;100.00;63241.31;1019513;29;20268;-74
2023/08/29 00:06:34;;;;;;;5.60;3.75;;;;;;;-144.15;100.00;63241.31;1022724;29;20035;-74
2023/08/29 00:07:05;;;;;;;5.70;3.28;;;;;;;-144.15;100.00;63241.31;1022834;29;20277;-75
2023/08/29 00:07:36;;;;;;;3.90;3.03;;;;;;;-144.15;100.00;63241.31;1023709;28;20631;-74
2023/08/29 00:08:07;;;;;;;3.60;3.03;;;;;;;-144.15;100.00;63241.31;1023896;28;20779;-75
2023/08/29 00:08:37;;;;;;;4.15;3.17;;;;;;;-144.15;100.00;63241.31;1026836;28;20278;-73
2023/08/29 00:09:08;;;;;;;3.47;2.90;;;;;;;-144.15;100.00;63241.31;1026890;28;20741;-75
2023/08/29 00:09:38;;;;;;;3.40;2.92;;;;;;;-144.15;100.00;63241.31;1022783;28;20039;-73
2023/08/29 00:10:09;;;;;;;5.22;3.17;;;;;;;-144.15;100.00;63241.31;1023078;28;20102;-75
2023/08/29 00:10:39;;;;;;;3.92;2.80;;;;;;;-144.15;100.00;63241.31;1026688;28;20027;-73
2023/08/29 00:11:13;;;;;;;3.83;3.10;;;;;;;-144.15;100.00;63241.31;1026938;28;20023;-74
2023/08/29 00:11:43;;;;;;;4.00;3.30;;;;;;;-144.15;100.00;63241.31;1031420;28;20420;-75
2023/08/29 00:12:14;;;;;;;4.15;3.15;;;;;;;-144.15;100.00;63241.31;1030766;28;20272;-73
2023/08/29 00:12:45;;;;;;;4.32;3.25;;;;;;;-144.15;100.00;63241.31;1026787;28;20035;-73
2023/08/29 00:13:15;;;;;;;5.00;3.10;;;;;;;-144.15;100.00;63241.31;1018235;29;20027;-74
2023/08/29 00:13:46;;;;;;;4.03;3.38;;;;;;;-144.15;100.00;63241.31;1018783;29;20028;-75
2023/08/29 00:14:16;;;;;;;3.13;2.83;;;;;;;-144.15;100.00;63241.31;1022631;29;20393;-74
2023/08/29 00:14:46;;;;;;;3.88;3.17;;;;;;;-144.15;100.00;63241.31;1023066;28;20024;-75
2023/08/29 00:15:17;;;;;;;3.50;3.20;;;;;;;-144.15;100.00;63241.31;1030759;28;20041;-74
2023/08/29 00:15:47;;;;;;;4.78;3.72;;;;;;;-144.15;100.00;63241.31;1026691;28;20023;-76
2023/08/29 00:16:18;;;;;;;4.10;3.13;;;;;;;-144.15;100.00;63241.31;1026956;28;20027;-75
2023/08/29 00:16:48;;;;;;;7.78;3.38;;;;;;;-144.15;100.00;63241.31;1023053;28;20031;-75
2023/08/29 00:17:19;;;;;;;4.88;3.17;;;;;;;-144.15;100.00;63241.31;1022712;28;20038;-74
2023/08/29 00:17:49;;;;;;;5.30;3.40;;;;;;;-144.15;100.00;63241.31;1022852;28;20031;-75
2023/08/29 00:18:22;;;;;;;5.68;3.83;;;;;;;-144.15;100.00;63241.31;1022823;29;20059;-75
2023/08/29 00:18:53;;;;;;;5.25;3.40;;;;;;;-144.15;100.00;63241.31;1019260;29;20272;-75
2023/08/29 00:19:23;;;;;;;4.65;3.10;;;;;;;-144.15;100.00;63241.31;1026785;28;20094;-75
2023/08/29 00:19:53;;;;;;;4.32;3.63;;;;;;;-144.15;100.00;63241.31;1018790;29;20080;-73
2023/08/29 00:20:24;;;;;;;4.90;3.70;;;;;;;-144.15;100.00;63241.31;1022739;29;20030;-75
2023/08/29 00:20:54;;;;;;;5.00;3.70;;;;;;;-144.15;100.00;63241.31;1022719;29;20118;-73
2023/08/29 00:21:25;;;;;;;4.57;3.65;;;;;;;-144.15;100.00;63241.31;1019024;29;20054;-72
2023/08/29 00:21:55;;;;;;;4.63;4.10;;;;;;;-144.15;100.00;63241.31;1018679;29;20031;-75
2023/08/29 00:22:26;;;;;;;5.75;4.07;;;;;;;-144.15;100.00;63241.31;1022762;29;20031;-73
2023/08/29 00:22:56;;;;;;;5.20;3.83;;;;;;;-144.15;100.00;63241.31;1014954;29;20043;-75
2023/08/29 00:23:27;;;;;;;5.45;3.92;;;;;;;-144.15;100.00;63241.31;1018293;29;20035;-75
2023/08/29 00:23:57;;;;;;;4.72;3.80;;;;;;;-144.15;100.00;63241.31;1018707;29;20031;-74
2023/08/29 00:24:28;;;;;;;4.70;3.90;;;;;;;-144.15;100.00;63241.31;1015158;29;20036;-74
2023/08/29 00:24:58;;;;;;;4.00;3.50;;;;;;;-144.15;100.00;63241.31;1018875;29;20028;-75
2023/08/29 00:25:29;;;;;;;5.68;3.75;;;;;;;-144.15;100.00;63241.31;1018942;29;20024;-75
2023/08/29 00:25:59;;;;;;;6.13;4.53;;;;;;;-144.15;100.00;63241.31;1018760;29;20024;-75
2023/08/29 00:26:30;;;;;;;5.13;3.22;;;;;;;-144.15;100.00;63241.31;1018941;29;20544;-74
2023/08/29 00:27:00;;;;;;;6.00;4.22;;;;;;;-144.15;100.00;63241.31;1022979;28;20445;-76
2023/08/29 00:27:31;;;;;;;7.03;3.40;;;;;;;-144.15;100.00;63241.31;1022876;28;20020;-76
2023/08/29 00:28:01;;;;;;;5.72;3.67;;;;;;;-144.15;100.00;63241.31;1026832;28;20026;-75
2023/08/29 00:28:31;;;;;;;5.63;4.10;;;;;;;-144.15;100.00;63241.31;1026182;28;20106;-75
2023/08/29 00:29:02;;;;;;;5.28;3.97;;;;;;;-144.15;100.00;63241.31;1022863;28;20130;-75
2023/08/29 00:29:32;;;;;;;7.55;4.50;;;;;;;-144.15;100.00;63241.31;1022771;29;20375;-75
2023/08/29 00:30:04;;;;;;;5.10;3.88;;;;;;;-144.15;100.00;63241.31;1018923;29;20031;-75
2023/08/29 00:30:38;;;;;;;5.30;4.28;;;;;;;-144.15;100.00;63241.31;1015022;29;20040;-74
2023/08/29 00:31:08;;;;;;;7.00;4.60;;;;;;;-144.15;100.00;63241.31;1015629;29;20276;-76
2023/08/29 00:31:38;;;;;;;4.88;3.75;;;;;;;-144.15;100.00;63241.31;1019706;29;20267;-74
2023/08/29 00:32:10;;;;;;;6.43;4.75;;;;;;;-144.15;100.00;63241.31;1024179;28;20028;-73
2023/08/29 00:32:40;;;;;;;6.72;4.22;;;;;;;-144.15;100.00;63241.31;1030929;28;20042;-74
2023/08/29 00:33:11;;;;;;;6.03;4.60;;;;;;;-144.15;100.00;63241.31;1030585;28;20265;-74
2023/08/29 00:33:41;;;;;;;6.95;4.50;;;;;;;-144.15;100.00;63241.31;1022722;29;20063;-74
2023/08/29 00:34:12;;;;;;;5.75;4.05;;;;;;;-144.15;100.00;63241.31;1022932;29;20035;-76
2023/08/29 00:34:42;;;;;;;7.35;4.38;;;;;;;-144.15;100.00;63241.31;1022701;29;20019;-74
2023/08/29 00:35:13;;;;;;;9.02;4.40;;;;;;;-144.15;100.00;63241.31;1019136;28;20024;-75
2023/08/29 00:35:43;;;;;;;5.20;4.05;;;;;;;-144.15;100.00;63241.31;1026806;28;20046;-74
2023/08/29 00:36:14;;;;;;;5.85;4.55;;;;;;;-144.15;100.00;63241.31;1023057;28;20043;-73
2023/08/29 00:36:44;;;;;;;8.23;4.32;;;;;;;-144.15;100.00;63241.31;1026965;28;20030;-73
2023/08/29 00:37:14;;;;;;;6.78;4.88;;;;;;;-144.15;100.00;63241.31;1026923;28;20038;-73
2023/08/29 00:37:45;;;;;;;8.38;5.25;;;;;;;-144.15;100.00;63241.31;1019007;29;20024;-74
2023/08/29 00:38:15;;;;;;;8.48;4.95;;;;;;;-144.15;100.00;63241.31;1022876;29;20421;-74
2023/08/29 00:38:46;;;;;;;8.48;4.95;;;;;;;-144.15;100.00;63241.31;1018959;29;20031;-74
2023/08/29 00:39:16;;;;;;;10.45;5.45;;;;;;;-144.15;100.00;63241.31;1015174;29;20024;-74
2023/08/29 00:39:47;;;;;;;6.43;4.60;;;;;;;-144.15;100.00;63241.31;1022758;29;20108;-73
2023/08/29 00:40:20;;;;;;;7.70;5.15;;;;;;;-144.15;100.00;63241.31;1023560;28;20028;-74
2023/08/29 00:40:50;;;;;;;8.93;5.75;;;;;;;-144.15;100.00;63241.31;1023302;28;20279;-75
2023/08/29 00:41:21;;;;;;;8.32;5.13;;;;;;;-144.15;100.00;63241.31;1022645;29;20497;-74
2023/08/29 00:41:51;;;;;;;8.30;5.15;;;;;;;-144.15;100.00;63241.31;1022688;29;20701;-74
2023/08/29 00:42:22;;;;;;;6.60;5.03;;;;;;;-144.15;100.00;63241.31;1023065;28;20027;-76
2023/08/29 00:42:52;;;;;;;8.13;5.47;;;;;;;-144.15;100.00;63241.31;1030686;28;20484;-74
2023/08/29 00:43:22;;;;;;;8.40;5.82;;;;;;;-144.15;100.00;63241.31;1033998;28;20034;-73
2023/08/29 00:43:53;;;;;;;7.60;5.63;;;;;;;-144.15;100.00;63241.31;1026821;28;20023;-74
2023/08/29 00:44:23;;;;;;;8.73;5.63;;;;;;;-144.15;100.00;63241.31;1027236;28;20763;-75
2023/08/29 00:44:54;;;;;;;10.85;5.72;;;;;;;-144.15;100.00;63241.31;1018861;29;20079;-73
2023/08/29 00:45:25;;;;;;;8.77;6.07;;;;;;;-144.15;100.00;63241.31;1018998;28;20015;-74
2023/08/29 00:45:55;;;;;;;7.30;5.78;;;;;;;-144.15;100.00;63241.31;1018974;29;20020;-73
2023/08/29 00:46:25;;;;;;;8.85;5.35;;;;;;;-144.15;100.00;63241.31;1026937;28;20010;-75
2023/08/29 00:46:56;;;;;;;9.10;5.88;;;;;;;-144.15;100.00;63241.31;1026569;28;20018;-73
2023/08/29 00:47:27;;;;;;;14.52;6.53;;;;;;;-144.15;100.00;63241.31;1025819;28;20019;-74
2023/08/29 00:47:58;;;;;;;13.88;6.70;;;;;;;-144.15;100.00;63241.31;1022807;29;20122;-72
2023/08/29 00:48:29;;;;;;;10.38;6.53;;;;;;;-144.15;100.00;63241.31;1026651;28;21135;-74
2023/08/29 00:48:59;;;;;;;10.57;6.40;;;;;;;-144.15;100.00;63241.31;1018643;29;20034;-73
2023/08/29 00:49:30;;;;;;;9.05;6.53;;;;;;;-144.15;100.00;63241.31;1018818;29;20256;-73
2023/08/29 00:50:00;;;;;;;9.30;6.28;;;;;;;-144.15;100.00;63241.31;1022681;29;20042;-73
2023/08/29 00:50:31;;;;;;;8.68;6.50;;;;;;;-144.15;100.00;63241.31;1018725;29;20685;-73
2023/08/29 00:51:02;;;;;;;11.10;6.82;;;;;;;-144.15;100.00;63241.31;1018796;29;20054;-74
2023/08/29 00:51:33;;;;;;;9.68;6.70;;;;;;;-144.15;100.00;63241.31;1019057;29;20015;-74
2023/08/29 00:52:05;;;;;;;9.68;6.53;;;;;;;-144.15;100.00;63241.31;1022636;29;20266;-75
2023/08/29 00:52:35;;;;;;;9.90;6.50;;;;;;;-144.15;100.00;63241.31;1015383;29;20032;-74
2023/08/29 00:53:06;;;;;;;10.60;6.63;;;;;;;-144.15;100.00;63241.31;1018563;29;20263;-75
2023/08/29 00:53:36;;;;;;;11.13;6.95;;;;;;;-144.15;100.00;63241.31;1012956;29;20027;-73
2023/08/29 00:54:07;;;;;;;11.45;7.70;;;;;;;-144.15;100.00;63241.31;1015083;29;20020;-74
2023/08/29 00:54:38;;;;;;;11.90;7.40;;;;;;;-144.15;100.00;63241.31;1014963;29;20412;-73
2023/08/29 00:55:08;;;;;;;10.75;7.05;;;;;;;-144.15;100.00;63241.31;1018684;29;20027;-74
2023/08/29 00:55:39;;;;;;;12.10;7.53;;;;;;;-144.15;100.00;63241.31;1014713;29;20012;-73
2023/08/29 00:56:09;;;;;;;13.02;8.43;;;;;;;-144.15;100.00;63241.31;1018772;29;20027;-74
2023/08/29 00:56:40;;;;;;;13.48;7.75;;;;;;;-144.15;100.00;63241.31;1018708;29;20035;-74
2023/08/29 00:57:10;;;;;;;11.55;7.40;;;;;;;-144.15;100.00;63241.31;1018562;29;20023;-74
2023/08/29 00:57:41;;;;;;;10.85;7.50;;;;;;;-144.15;100.00;63241.31;1018982;29;20083;-73
2023/08/29 00:58:12;;;;;;;13.70;8.85;;;;;;;-144.15;100.00;63241.31;1022749;29;20034;-74
2023/08/29 00:58:42;;;;;;;12.43;7.90;;;;;;;-144.15;100.00;63241.31;1018764;29;20482;-74
2023/08/29 00:59:13;;;;;;;12.43;8.20;;;;;;;-144.15;100.00;63241.31;1014816;29;20364;-73
2023/08/29 00:59:44;;;;;;;13.00;8.23;;;;;;;-144.15;100.00;63241.31;1015011;29;20024;-74
2023/08/29 01:00:14;;;;;;;13.18;8.25;;;;;;;-144.15;100.00;63241.31;1015108;29;20809;-72
2023/08/29 01:00:45;;;;;;;11.15;7.65;;;;;;;-144.15;100.00;63241.31;1023023;28;20019;-73
2023/08/29 01:01:17;;;;;;;12.68;8.10;;;;;;;-144.15;100.00;63241.31;1022811;28;20015;-75
2023/08/29 01:01:47;;;;;;;12.00;8.32;;;;;;;-144.15;100.00;63241.31;1026671;28;20270;-74
2023/08/29 01:02:18;;;;;;;15.52;8.35;;;;;;;-144.15;100.00;63241.31;1018542;29;20312;-74
2023/08/29 01:02:48;;;;;;;13.73;8.40;;;;;;;-144.15;100.00;63241.31;1018936;29;20023;-73
2023/08/29 01:03:18;;;;;;;12.02;7.75;;;;;;;-144.15;100.00;63241.31;1018353;29;20509;-74
2023/08/29 01:03:49;;;;;;;13.15;8.57;;;;;;;-144.15;100.00;63241.31;1022777;28;20771;-74
2023/08/29 01:04:19;;;;;;;13.43;8.30;;;;;;;-144.15;100.00;63241.31;1030808;28;20033;-74
2023/08/29 01:04:50;;;;;;;12.27;8.40;;;;;;;-144.15;100.00;63241.31;1030769;28;20026;-73
2023/08/29 01:05:20;;;;;;;13.73;8.20;;;;;;;-144.15;100.00;63241.31;1022441;29;20027;-73
2023/08/29 01:05:51;;;;;;;14.07;9.27;;;;;;;-144.15;100.00;63241.31;1018737;29;20505;-73
2023/08/29 01:06:21;;;;;;;15.93;8.63;;;;;;;-144.15;100.00;63241.31;1014689;29;20043;-73
2023/08/29 01:06:55;;;;;;;15.15;8.40;;;;;;;-144.15;100.00;63241.31;1022766;29;20498;-73
2023/08/29 01:07:25;;;;;;;15.60;8.57;;;;;;;-144.15;100.00;63241.31;1018601;29;20011;-73
2023/08/29 01:07:58;;;;;;;13.82;8.82;;;;;;;-144.15;100.00;63241.31;1014757;29;20264;-73
2023/08/29 01:08:28;;;;;;;14.02;8.60;;;;;;;-144.15;100.00;63241.31;1018635;29;20084;-74
2023/08/29 01:08:59;;;;;;;14.18;8.48;;;;;;;-144.15;100.00;63241.31;1018475;29;20279;-74
2023/08/29 01:09:30;;;;;;;13.88;8.48;;;;;;;-144.15;100.00;63241.31;1018775;29;20039;-73
2023/08/29 01:10:00;;;;;;;14.80;9.23;;;;;;;-144.15;100.00;63241.31;1022563;29;20019;-75
2023/08/29 01:11:00;;;;;;;15.60;8.93;;;;;;;-144.15;100.00;63241.31;1018706;29;20999;-74
2023/08/29 01:11:44;;;;;;;13.68;8.60;;;;;;;-144.15;100.00;63241.31;1025332;28;20093;-74
2023/08/29 01:12:18;;;;;;;14.02;8.55;;;;;;;-144.15;100.00;63241.31;1027905;28;20261;-73
2023/08/29 01:13:06;;;;;;;15.63;9.05;;;;;;;-144.15;100.00;63241.31;1018656;29;20259;-73
2023/08/29 01:13:44;;;;;;;14.82;9.13;;;;;;;-144.15;100.00;63241.31;1014047;29;20284;-74
2023/08/29 01:14:26;;;;;;;16.58;8.90;;;;;;;-144.15;100.00;63241.31;1018364;29;20271;-73
2023/08/29 01:14:58;;;;;;;16.35;9.27;;;;;;;-144.15;100.00;63241.31;1022769;28;20262;-74
2023/08/29 01:15:29;;;;;;;17.05;9.13;;;;;;;-144.15;100.00;63241.31;1017186;29;20270;-73
2023/08/29 01:16:01;;;;;;;19.50;10.10;;;;;;;-144.15;100.00;63241.31;1014346;29;20261;-73
2023/08/29 01:16:33;;;;;;;16.23;9.85;;;;;;;-144.15;100.00;63241.31;1012308;29;20794;-73
2023/08/29 01:17:10;;;;;;;16.48;10.55;;;;;;;-144.15;100.00;63241.31;1013555;29;20284;-71
2023/08/29 01:17:43;;;;;;;18.17;10.02;;;;;;;-144.15;100.00;63241.31;1024856;28;20283;-73
2023/08/29 01:18:14;;;;;;;16.73;9.93;;;;;;;-144.15;100.00;63241.31;1026281;28;20270;-73
2023/08/29 01:18:44;;;;;;;18.13;10.27;;;;;;;-144.15;100.00;63241.31;1018619;29;20268;-73
2023/08/29 01:19:15;;;;;;;19.48;9.73;;;;;;;-144.15;100.00;63241.31;1022378;29;20565;-71
2023/08/29 01:19:48;;;;;;;17.70;9.60;;;;;;;-144.15;100.00;63241.31;1022669;28;20046;-72
2023/08/29 01:20:18;;;;;;;19.08;10.57;;;;;;;-144.15;100.00;63241.31;1020495;29;20561;-73
2023/08/29 01:20:49;;;;;;;16.75;9.90;;;;;;;-144.15;100.00;63241.31;1022974;28;20330;-73
2023/08/29 01:21:28;;;;;;;18.42;10.68;;;;;;;-144.15;100.00;63241.31;1026492;28;20058;-73
2023/08/29 01:22:17;;;;;;;20.05;10.90;;;;;;;-144.15;100.00;63241.31;1018495;29;20406;-74
2023/08/29 01:23:07;;;;;;;15.68;9.13;;;;;;;-144.15;100.00;63241.31;1021822;28;20271;-74
2023/08/29 01:23:43;;;;;;;18.55;10.10;;;;;;;-144.15;100.00;63241.31;1023022;28;20267;-73
2023/08/29 01:24:47;;;;;;;15.95;9.82;;;;;;;-144.15;100.00;63241.31;1026480;28;20323;-72
2023/08/29 01:25:31;;;;;;;17.20;9.40;;;;;;;-144.15;100.00;63241.31;1021366;29;20827;-74
2023/08/29 01:26:09;;;;;;;17.35;10.55;;;;;;;-144.15;100.00;63241.31;1018317;29;20374;-74
2023/08/29 01:26:40;;;;;;;19.20;9.93;;;;;;;-144.15;100.00;63241.31;1018243;29;20935;-74
2023/08/29 01:27:10;;;;;;;22.33;11.05;;;;;;;-144.15;100.00;63241.31;1023343;28;20263;-75
2023/08/29 01:27:41;;;;;;;17.65;9.77;;;;;;;-144.15;100.00;63241.31;1022660;29;20463;-74
2023/08/29 01:28:11;;;;;;;20.15;10.70;;;;;;;-144.15;100.00;63241.31;1022597;28;20027;-74
2023/08/29 01:28:42;;;;;;;18.70;10.60;;;;;;;-144.15;100.00;63241.31;1022507;29;20716;-74
2023/08/29 01:29:13;;;;;;;19.65;10.77;;;;;;;-144.15;100.00;63241.31;1022501;29;20027;-73
2023/08/29 01:29:43;;;;;;;15.57;9.55;;;;;;;-144.15;100.00;63241.31;1018912;29;20031;-74
2023/08/29 01:30:14;;;;;;;16.38;9.98;;;;;;;-144.15;100.00;63241.31;1022533;29;20038;-72
2023/08/29 01:30:45;;;;;;;19.70;10.73;;;;;;;-144.15;100.00;63241.31;1022634;29;20027;-74
2023/08/29 01:31:16;;;;;;;17.38;10.05;;;;;;;-144.15;100.00;63241.31;1014557;29;20299;-74
2023/08/29 01:31:46;;;;;;;20.33;10.65;;;;;;;-144.15;100.00;63241.31;1014996;29;20043;-73
2023/08/29 01:32:17;;;;;;;16.25;9.80;;;;;;;-144.15;100.00;63241.31;1014728;29;20024;-72
2023/08/29 01:32:47;;;;;;;19.88;11.05;;;;;;;-144.15;100.00;63241.31;1014581;29;20024;-73
2023/08/29 01:33:17;;;;;;;21.25;10.43;;;;;;;-144.15;100.00;63241.31;1014152;29;20012;-73
2023/08/29 01:33:48;;;;;;;23.15;11.13;;;;;;;-144.15;100.00;63241.31;1022520;29;20485;-73
2023/08/29 01:34:18;;;;;;;18.13;10.40;;;;;;;-144.15;100.00;63241.31;1018563;29;20019;-73
2023/08/29 01:34:51;;;;;;;20.95;10.45;;;;;;;-144.15;100.00;63241.31;1022613;29;20051;-75
2023/08/29 01:35:22;;;;;;;21.00;10.10;;;;;;;-144.15;100.00;63241.31;1018477;29;20031;-73
2023/08/29 01:35:52;;;;;;;22.55;10.75;;;;;;;-144.15;100.00;63241.31;1023046;28;21186;-73
2023/08/29 01:36:26;;;;;;;19.77;10.27;;;;;;;-144.15;100.00;63241.31;1026932;28;20022;-73
2023/08/29 01:36:57;;;;;;;18.17;9.65;;;;;;;-144.15;100.00;63241.31;1022456;28;20062;-74
2023/08/29 01:37:27;;;;;;;19.55;10.30;;;;;;;-144.15;100.00;63241.31;1018603;29;20267;-73
2023/08/29 01:38:00;;;;;;;22.05;10.80;;;;;;;-144.15;100.00;63241.31;1018426;29;20040;-73
2023/08/29 01:38:31;;;;;;;21.45;10.68;;;;;;;-144.15;100.00;63241.31;1019582;28;20031;-74
2023/08/29 01:39:01;;;;;;;20.83;9.75;;;;;;;-144.15;100.00;63241.31;1022800;28;20262;-72
2023/08/29 01:39:32;;;;;;;20.23;10.80;;;;;;;-144.15;100.00;63241.31;1022456;29;20031;-73
2023/08/29 01:40:04;;;;;;;21.25;10.35;;;;;;;-144.15;100.00;63241.31;1022580;29;20031;-74
2023/08/29 01:40:34;;;;;;;23.17;11.25;;;;;;;-144.15;100.00;63241.31;1018802;29;20031;-73
2023/08/29 01:41:05;;;;;;;23.02;10.05;;;;;;;-144.15;100.00;63241.31;1018627;29;20302;-73
2023/08/29 01:41:35;;;;;;;23.08;10.68;;;;;;;-144.15;100.00;63241.31;1026309;28;20089;-73
2023/08/29 01:42:09;;;;;;;20.98;10.93;;;;;;;-144.15;100.00;63241.31;1022714;28;20059;-74
2023/08/29 01:42:39;;;;;;;22.92;11.45;;;;;;;-144.15;100.00;63241.31;1027003;28;20122;-74
2023/08/29 01:43:10;;;;;;;18.27;9.93;;;;;;;-144.15;100.00;63241.31;1029344;28;20798;-71
2023/08/29 01:43:40;;;;;;;21.17;10.50;;;;;;;-144.15;100.00;63241.31;1022406;28;20122;-74
2023/08/29 01:44:11;;;;;;;17.25;9.05;;;;;;;-144.15;100.00;63241.31;1026656;28;20755;-74
2023/08/29 01:44:41;;;;;;;14.80;9.18;;;;;;;-144.15;100.00;63241.31;1022557;29;20030;-73
2023/08/29 01:45:11;;;;;;;18.70;9.52;;;;;;;-144.15;100.00;63241.31;1024471;28;20090;-73
2023/08/29 01:45:42;;;;;;;20.80;9.77;;;;;;;-144.15;100.00;63241.31;1026509;28;20049;-74
2023/08/29 01:46:12;;;;;;;20.08;10.40;;;;;;;-144.15;100.00;63241.31;1026705;28;20492;-74
2023/08/29 01:46:43;;;;;;;18.50;10.48;;;;;;;-144.15;100.00;63241.31;1022588;29;20027;-73
2023/08/29 01:47:13;;;;;;;20.15;10.55;;;;;;;-144.15;100.00;63241.31;1021384;28;20023;-71
2023/08/29 01:47:44;;;;;;;26.60;11.50;;;;;;;-144.15;100.00;63241.31;1017758;29;20505;-73
2023/08/29 01:48:15;;;;;;;25.02;11.20;;;;;;;-144.15;100.00;63241.31;1018782;28;20070;-72
2023/08/29 01:48:46;;;;;;;20.67;10.85;;;;;;;-144.15;100.00;63241.31;1022407;29;20074;-72
2023/08/29 01:49:16;;;;;;;19.42;10.55;;;;;;;-144.15;100.00;63241.31;1022662;28;20337;-72
2023/08/29 01:49:47;;;;;;;19.35;10.60;;;;;;;-144.15;100.00;63241.31;1018515;29;20834;-72
2023/08/29 01:50:17;;;;;;;20.30;10.27;;;;;;;-144.15;100.00;63241.31;1014554;29;20036;-73
2023/08/29 01:50:48;;;;;;;17.75;9.88;;;;;;;-144.15;100.00;63241.31;1018574;29;20020;-72
2023/08/29 01:51:18;;;;;;;19.90;10.00;;;;;;;-144.15;100.00;63241.31;1018512;29;20028;-73
2023/08/29 01:51:49;;;;;;;14.75;9.10;;;;;;;-144.15;100.00;63241.31;1018253;29;20158;-72
2023/08/29 01:52:19;;;;;;;17.10;8.98;;;;;;;-144.15;100.00;63241.31;1014579;29;20031;-73
2023/08/29 01:52:50;;;;;;;14.25;8.52;;;;;;;-144.15;100.00;63241.31;1018596;29;20497;-72
2023/08/29 01:53:20;;;;;;;17.45;9.50;;;;;;;-144.15;100.00;63241.31;1014074;29;20426;-73
2023/08/29 01:53:51;;;;;;;17.17;10.18;;;;;;;-144.15;100.00;63241.31;1014424;29;20036;-72
2023/08/29 01:54:22;;;;;;;17.27;10.02;;;;;;;-144.15;100.00;63241.31;1014619;29;20355;-73
2023/08/29 01:54:52;;;;;;;18.08;9.20;;;;;;;-144.15;100.00;63241.31;1014765;29;20268;-73
2023/08/29 01:55:23;;;;;;;18.05;9.63;;;;;;;-144.15;100.00;63241.31;1014511;29;20563;-73
2023/08/29 01:55:54;;;;;;;17.77;9.95;;;;;;;-144.15;100.00;63241.31;1010472;29;20080;-73
2023/08/29 01:56:25;;;;;;;17.73;9.88;;;;;;;-144.15;100.00;63241.31;1010792;29;20043;-72
2023/08/29 01:56:56;;;;;;;16.58;9.02;;;;;;;-144.15;100.00;63241.31;1010566;29;20139;-73
2023/08/29 01:57:27;;;;;;;15.85;9.52;;;;;;;-144.15;100.00;63241.31;1011070;29;20273;-73
2023/08/29 01:57:57;;;;;;;16.77;9.32;;;;;;;-144.15;100.00;63241.31;1010979;29;20103;-73
2023/08/29 01:58:28;;;;;;;15.60;9.20;;;;;;;-144.15;100.00;63241.31;1014782;29;20075;-72
2023/08/29 01:58:58;;;;;;;16.13;9.55;;;;;;;-144.15;100.00;63241.31;1018343;29;20054;-73
2023/08/29 01:59:29;;;;;;;16.23;9.55;;;;;;;-144.15;100.00;63241.31;1018510;29;20031;-73
2023/08/29 01:59:59;;;;;;;17.42;10.05;;;;;;;-144.15;100.00;63241.31;1018421;29;20540;-73
2023/08/29 02:00:31;;;;;;;14.60;9.07;;;;;;;-144.15;100.00;63241.31;1018477;29;20588;-73
2023/08/29 02:01:01;;;;;;;18.27;9.55;;;;;;;-144.15;100.00;63241.31;1022767;28;20063;-73
2023/08/29 02:01:32;;;;;;;19.20;9.85;;;;;;;-144.15;100.00;63241.31;1018494;29;20926;-73
2023/08/29 02:02:02;;;;;;;20.88;10.15;;;;;;;-144.15;100.00;63241.31;1014793;29;20020;-72
2023/08/29 02:02:33;;;;;;;18.35;10.48;;;;;;;-144.15;100.00;63241.31;1014447;29;20482;-73
2023/08/29 02:03:03;;;;;;;18.73;10.43;;;;;;;-144.15;100.00;63241.31;1018297;29;20055;-73
2023/08/29 02:03:34;;;;;;;19.85;10.52;;;;;;;-144.15;100.00;63241.31;1017782;29;20032;-72
2023/08/29 02:04:04;;;;;;;21.38;11.32;;;;;;;-144.15;100.00;63241.31;1022297;28;20460;-73
2023/08/29 02:04:34;;;;;;;23.20;11.25;;;;;;;-144.15;100.00;63241.31;1022462;29;20043;-71
2023/08/29 02:05:05;;;;;;;21.48;11.45;;;;;;;-144.15;100.00;63241.31;1022523;28;20094;-73
2023/08/29 02:05:35;;;;;;;23.27;11.50;;;;;;;-144.15;100.00;63241.31;1024342;28;20647;-73
2023/08/29 02:06:06;;;;;;;24.35;11.45;;;;;;;-144.15;100.00;63241.31;1022457;29;20058;-72
2023/08/29 02:06:36;;;;;;;20.20;11.10;;;;;;;-144.15;100.00;63241.31;1022478;29;20528;-72
2023/08/29 02:07:07;;;;;;;24.27;12.02;;;;;;;-144.15;100.00;63241.31;1022404;28;20024;-73
2023/08/29 02:07:37;;;;;;;21.60;11.00;;;;;;;-144.15;100.00;63241.31;1026480;28;20045;-73
2023/08/29 02:08:08;;;;;;;19.83;10.93;;;;;;;-144.15;100.00;63241.31;1018432;29;20027;-74
2023/08/29 02:08:38;;;;;;;23.08;11.73;;;;;;;-144.15;100.00;63241.31;1018467;29;20028;-73
2023/08/29 02:09:09;;;;;;;26.98;12.20;;;;;;;-144.15;100.00;63241.31;1018402;29;20023;-73
2023/08/29 02:09:39;;;;;;;23.17;11.65;;;;;;;-144.15;100.00;63241.31;1022492;28;20023;-73
2023/08/29 02:10:10;;;;;;;21.13;10.90;;;;;;;-144.15;100.00;63241.31;1022230;29;20023;-73
2023/08/29 02:10:40;;;;;;;21.70;10.60;;;;;;;-144.15;100.00;63241.31;1018305;29;20417;-72
2023/08/29 02:11:11;;;;;;;20.48;10.27;;;;;;;-144.15;100.00;63241.31;1018440;29;20271;-74
2023/08/29 02:11:42;;;;;;;18.85;10.68;;;;;;;-144.15;100.00;63241.31;1018807;28;20031;-72
2023/08/29 02:12:13;;;;;;;18.02;9.55;;;;;;;-144.15;100.00;63241.31;1022347;28;20035;-73
2023/08/29 02:12:43;;;;;;;18.85;10.02;;;;;;;-144.15;100.00;63241.31;1022610;28;20564;-73
2023/08/29 02:13:13;;;;;;;23.27;10.52;;;;;;;-144.15;100.00;63241.31;1025846;28;20030;-72
2023/08/29 02:13:44;;;;;;;22.58;9.57;;;;;;;-144.15;100.00;63241.31;1022447;28;20023;-71
2023/08/29 02:14:14;;;;;;;19.25;10.05;;;;;;;-144.15;100.00;63241.31;1022508;28;20027;-73
2023/08/29 02:14:45;;;;;;;18.23;9.38;;;;;;;-144.15;100.00;63241.31;1026469;28;20034;-73
2023/08/29 02:15:16;;;;;;;16.73;9.35;;;;;;;-144.15;100.00;63241.31;1014537;29;20031;-73
2023/08/29 02:15:46;;;;;;;17.27;9.25;;;;;;;-144.15;100.00;63241.31;1018508;29;20039;-72
2023/08/29 02:16:17;;;;;;;16.13;9.43;;;;;;;-144.15;100.00;63241.31;1018473;29;20521;-73
2023/08/29 02:16:47;;;;;;;18.55;10.00;;;;;;;-144.15;100.00;63241.31;1018642;28;20472;-73
2023/08/29 02:17:17;;;;;;;20.90;9.98;;;;;;;-144.15;100.00;63241.31;1030020;28;20389;-72
2023/08/29 02:17:48;;;;;;;18.35;9.70;;;;;;;-144.15;100.00;63241.31;1030383;28;20022;-74
2023/08/29 02:18:18;;;;;;;17.23;9.55;;;;;;;-144.15;100.00;63241.31;1030348;28;20057;-73
2023/08/29 02:18:49;;;;;;;19.77;10.55;;;;;;;-144.15;100.00;63241.31;1034411;28;20018;-74
2023/08/29 02:19:19;;;;;;;20.80;10.40;;;;;;;-144.15;100.00;63241.31;1034278;28;20467;-74
2023/08/29 02:19:50;;;;;;;16.55;9.32;;;;;;;-144.15;100.00;63241.31;1034585;28;20398;-74
2023/08/29 02:20:20;;;;;;;17.88;10.32;;;;;;;-144.15;100.00;63241.31;1034344;28;20579;-74
2023/08/29 02:20:51;;;;;;;22.25;10.65;;;;;;;-144.15;100.00;63241.31;1034307;28;20024;-74
2023/08/29 02:21:22;;;;;;;18.20;9.98;;;;;;;-144.15;100.00;63241.31;1034395;28;20064;-74